Flight Track Log - Related Links

Times and Time Zones

All times are in EDT time to prevent confusion due to time zone crossing. See the N515JM flight status page for this flight to view local times or setup timezone preferences in your user account.

Time Position Orientation Groundspeed Altitude Reporting Facility
EDT Latitude Longitude Course Direction KTS MPH feet Rate Location/Type
Wed 04:20:53 PM 41.1000 -73.7833 255° West 217 250 2,700  Level New York TRACON
Wed 04:21:53 PM 41.0833 -73.8500 252° West 233 268 5,100 2,750 Climbing New York TRACON
Wed 04:22:53 PM 41.0333 -73.9333 232° Southwest 267 307 8,200 3,150 Climbing New York TRACON
Wed 04:23:53 PM 40.9833 -74.0167 232° Southwest 291 335 11,400 3,200 Climbing New York TRACON
Wed 04:24:53 PM 40.9333 -74.1000 232° Southwest 300 345 14,600 1,850 Climbing New York TRACON
Wed 04:25:53 PM 40.9333 -74.2167 270° West 335 386 15,100 750 Climbing New York TRACON
Wed 04:26:00 PM 41.1372 -74.5186 255° West  Level Estimated
Wed 04:26:53 PM 40.9333 -74.3333 270° West 329 379 16,100  Level New York TRACON
Wed 04:27:30 PM 40.9239 -74.4208 262° West 336 387 16,600 557 Climbing New York Center
Wed 04:28:30 PM 40.9239 -74.5553 270° West 348 400 17,000 202 Climbing New York Center
Wed 04:29:29 PM 40.9244 -74.6681 270° West 353 406 17,000  Level New York Center
Wed 04:30:29 PM 40.9214 -74.8161 268° West 353 406 17,000 50 Level New York Center
Wed 04:31:29 PM 40.9194 -74.9342 269° West 373 429 17,100 843 Climbing New York Center
Wed 04:32:30 PM 40.9192 -75.0578 270° West 356 410 18,700 1,700 Climbing New York Center
Wed 04:33:29 PM 40.9150 -75.1728 267° West 356 410 20,500 2,100 Climbing New York Center
Wed 04:34:30 PM 40.8847 -75.3136 254° West 356 410 22,900 2,231 Climbing New York Center
Wed 04:35:30 PM 40.8567 -75.4433 254° West 362 417 25,000 2,100 Climbing New York Center
Wed 04:36:30 PM 40.8267 -75.5703 253° West 367 422 27,100 1,513 Climbing New York Center
Wed 04:37:29 PM 40.7942 -75.6994 252° West 367 422 28,000 504 Climbing New York Center
Wed 04:38:29 PM 40.7636 -75.8342 253° West 379 436 28,100 595 Climbing New York Center
Wed 04:39:30 PM 40.7306 -75.9689 252° West 384 442 29,200 1,041 Climbing New York Center
Wed 04:40:30 PM 40.6975 -76.1031 252° West 384 442 30,200 1,000 Climbing New York Center
Wed 04:41:30 PM 40.6722 -76.2436 257° West 389 448 31,200 1,008 Climbing New York Center
Wed 04:42:29 PM 40.6844 -76.3867 276° West 386 444 32,200 1,000 Climbing New York Center
Wed 04:43:30 PM 40.7047 -76.5281 281° West 386 444 33,200 992 Climbing New York Center
Wed 04:44:30 PM 40.7250 -76.6667 281° West 391 450 34,200 1,000 Climbing New York Center
Wed 04:45:30 PM 40.7489 -76.8086 283° West 391 450 35,200 900 Climbing New York Center
Wed 04:46:30 PM 40.7689 -76.9500 281° West 391 450 36,000 706 Climbing New York Center
Wed 04:47:29 PM 40.7883 -77.0917 280° West 396 456 36,600 600 Climbing New York Center
Wed 04:48:30 PM 40.8097 -77.2389 281° West 396 456 37,200 545 Climbing New York Center
Wed 04:49:30 PM 40.8278 -77.3642 281° West 396 456 37,700 539 Climbing New York Center
Wed 04:51:17 PM 40.8653 -77.6158 281° West 405 466 38,700 604 Climbing Cleveland Center
Wed 04:52:19 PM 40.8883 -77.7872 280° West 398 458 39,400 581 Climbing Cleveland Center
Wed 04:53:21 PM 40.9078 -77.9289 280° West 396 456 39,900 290 Climbing Cleveland Center
Wed 04:54:23 PM 40.9256 -78.0706 279° West 397 457 40,000 48 Climbing Cleveland Center
Wed 04:55:25 PM 40.9481 -78.2367 280° West 415 478 40,000  Level Cleveland Center
Wed 04:56:27 PM 40.9667 -78.3856 279° West 415 478 40,000  Level Cleveland Center
Wed 04:57:29 PM 40.9844 -78.5342 279° West 417 480 40,000  Level Cleveland Center
Wed 04:58:31 PM 41.0036 -78.6872 279° West 421 484 40,000  Level Cleveland Center
Wed 04:59:33 PM 41.0175 -78.8333 277° West 413 475 40,000  Level Cleveland Center
Wed 05:00:35 PM 41.0350 -78.9839 279° West 416 479 40,000  Level Cleveland Center
Wed 05:01:38 PM 41.0556 -79.1653 279° West 416 479 40,000  Level Cleveland Center
Wed 05:02:40 PM 41.0722 -79.3158 278° West 416 479 40,000  Level Cleveland Center
Wed 05:03:42 PM 41.0894 -79.4669 279° West 417 480 40,000  Level Cleveland Center
Wed 05:04:44 PM 41.1064 -79.6172 279° West 415 478 40,000  Level Cleveland Center
Wed 05:05:46 PM 41.1219 -79.7669 278° West 414 476 40,000  Level Cleveland Center
Wed 05:06:48 PM 41.1422 -79.9425 279° West 416 479 40,000  Level Cleveland Center
Wed 05:07:50 PM 41.1581 -80.0992 278° West 416 479 40,000  Level Cleveland Center
Wed 05:08:52 PM 41.1750 -80.2483 279° West 414 476 40,000  Level Cleveland Center
Wed 05:09:54 PM 41.1925 -80.4208 278° West 413 475 40,000  Level Cleveland Center
Wed 05:10:56 PM 41.2086 -80.5739 278° West 414 476 40,000  Level Cleveland Center
Wed 05:11:58 PM 41.2231 -80.7256 277° West 411 473 40,000  Level Cleveland Center
Wed 05:13:01 PM 41.2383 -80.8775 278° West 411 473 40,000  Level Cleveland Center
Wed 05:14:03 PM 41.2533 -81.0289 278° West 410 472 40,000  Level Cleveland Center
Wed 05:15:05 PM 41.2678 -81.1806 277° West 411 473 40,000  Level Cleveland Center
Wed 05:16:07 PM 41.2822 -81.3317 277° West 409 471 40,000  Level Cleveland Center
Wed 05:17:09 PM 41.2958 -81.4772 277° West 409 471 40,000  Level Cleveland Center
Wed 05:18:11 PM 41.3133 -81.6575 277° West 412 474 40,000  Level Cleveland Center
Wed 05:19:13 PM 41.3269 -81.8094 277° West 412 474 40,000  Level Cleveland Center
Wed 05:20:15 PM 41.3394 -81.9622 276° West 416 479 40,000  Level Cleveland Center
Wed 05:21:17 PM 41.3550 -82.1347 277° West 413 475 40,000  Level Cleveland Center
Wed 05:22:19 PM 41.3653 -82.2869 275° West 411 473 40,000  Level Cleveland Center
Wed 05:23:21 PM 41.3744 -82.4425 275° West 417 480 40,000  Level Cleveland Center
Wed 05:24:23 PM 41.3822 -82.5967 274° West 416 479 40,000  Level Cleveland Center
Wed 05:25:26 PM 41.3911 -82.7511 274° West 416 479 40,000  Level Cleveland Center
Wed 05:26:28 PM 41.3992 -82.9053 274° West 414 476 40,000  Level Cleveland Center
Wed 05:27:30 PM 41.4072 -83.0578 274° West 411 473 40,000  Level Cleveland Center
Wed 05:28:32 PM 41.4167 -83.2267 274° West 412 474 40,000  Level Cleveland Center
Wed 05:29:34 PM 41.4236 -83.3764 274° West 406 467 40,000  Level Cleveland Center
Wed 05:30:36 PM 41.4300 -83.5283 273° West 409 471 40,000  Level Cleveland Center
Wed 05:31:38 PM 41.4383 -83.6792 274° West 407 468 40,000  Level Cleveland Center
Wed 05:32:40 PM 41.4450 -83.8306 273° West 408 470 40,000  Level Cleveland Center
Wed 05:33:42 PM 41.4539 -84.0128 274° West 410 472 40,000  Level Cleveland Center
Wed 05:34:44 PM 41.4608 -84.1631 274° West 407 468 40,000  Level Cleveland Center
Wed 05:35:46 PM 41.4672 -84.3036 274° West 407 468 40,000  Level Cleveland Center
Wed 05:36:49 PM 41.4733 -84.4542 273° West 408 470 40,000  Level Cleveland Center
Wed 05:37:51 PM 41.4808 -84.6347 273° West 405 466 40,000  Level Cleveland Center
Wed 05:38:53 PM 41.4864 -84.7861 273° West 408 470 40,000  Level Cleveland Center
Wed 05:40:00 PM 41.4908 -84.9356 272° West 408 470 40,000  Level Chicago Center
Wed 05:41:03 PM 41.4831 -85.0894 266° West 405 466 40,000  Level Chicago Center
Wed 05:42:05 PM 41.4719 -85.2672 265° West 405 466 40,000  Level Chicago Center
Wed 05:43:07 PM 41.4617 -85.4200 265° West 406 467 40,000  Level Chicago Center
Wed 05:44:09 PM 41.4553 -85.5728 267° West 407 468 40,000  Level Chicago Center
Wed 05:45:11 PM 41.4467 -85.7214 266° West 402 463 40,000  Level Chicago Center
Wed 05:46:13 PM 41.4392 -85.8692 266° West 400 460 40,000  Level Chicago Center
Wed 05:47:15 PM 41.4303 -86.0153 265° West 397 457 40,000  Level Chicago Center
Wed 05:48:17 PM 41.4211 -86.1606 265° West 395 455 40,000  Level Chicago Center
Wed 05:49:19 PM 41.4000 -86.3336 261° West 394 453 40,000  Level Chicago Center
Wed 05:50:21 PM 41.3806 -86.4803 260° West 400 460 40,000  Level Chicago Center
Wed 05:51:24 PM 41.3619 -86.6281 261° West 405 466 40,000  Level Chicago Center
Wed 05:52:26 PM 41.3458 -86.7722 262° West 403 464 40,000  Level Chicago Center
Wed 05:53:28 PM 41.3181 -86.9192 256° West 406 467 40,000  Level Chicago Center
Wed 05:54:30 PM 41.2867 -87.0967 257° West 409 471 40,000  Level Chicago Center
Wed 05:55:32 PM 41.2603 -87.2433 257° West 408 470 40,000  Level Chicago Center
Wed 05:56:34 PM 41.2389 -87.3886 259° West 400 460 40,000  Level Chicago Center
Wed 05:57:36 PM 41.2064 -87.5306 253° West 396 456 40,000  Level Chicago Center
Wed 05:58:38 PM 41.1733 -87.6736 253° West 400 460 40,000  Level Chicago Center
Wed 05:59:40 PM 41.1397 -87.8156 253° West 401 461 40,000  Level Chicago Center
Wed 06:00:42 PM 41.0983 -87.9861 252° West 402 463 40,000  Level Chicago Center
Wed 06:01:45 PM 41.0692 -88.1306 255° West 400 460 40,000  Level Chicago Center
Wed 06:02:47 PM 41.0756 -88.2786 273° West 399 459 40,000  Level Chicago Center
Wed 06:03:49 PM 41.0797 -88.4283 272° West 403 464 40,000  Level Chicago Center
Wed 06:04:51 PM 41.0819 -88.5781 271° West 405 466 40,000  Level Chicago Center
Wed 06:05:53 PM 41.0844 -88.7275 271° West 407 468 40,000  Level Chicago Center
Wed 06:06:55 PM 41.0883 -88.9106 272° West 415 478 40,000  Level Chicago Center
Wed 06:07:57 PM 41.0903 -89.0636 271° West 417 480 40,000  Level Chicago Center
Wed 06:08:59 PM 41.0919 -89.2158 271° West 417 480 40,000  Level Chicago Center
Wed 06:10:01 PM 41.0947 -89.3700 271° West 419 482 40,000  Level Chicago Center
Wed 06:11:03 PM 41.0964 -89.5219 271° West 417 480 40,000  Level Chicago Center
Wed 06:12:05 PM 41.0964 -89.6736 270° West 415 478 40,000  Level Chicago Center
Wed 06:13:08 PM 41.0981 -89.8539 271° West 412 474 40,000  Level Chicago Center
Wed 06:14:10 PM 41.0978 -90.0036 270° West 410 472 40,000  Level Chicago Center
Wed 06:15:12 PM 41.0989 -90.1522 271° West 409 471 40,000  Level Chicago Center
Wed 06:16:14 PM 41.0978 -90.3031 269° West 411 473 40,000  Level Chicago Center
Wed 06:17:16 PM 41.0978 -90.4531 270° West 409 471 40,000  Level Chicago Center
Wed 06:18:18 PM 41.0978 -90.6331 270° West 408 470 40,000  Level Chicago Center
Wed 06:19:20 PM 41.0972 -90.7819 270° West 408 470 40,000  Level Chicago Center
Wed 06:20:22 PM 41.0972 -90.9300 270° West 405 466 40,000  Level Chicago Center
Wed 06:21:24 PM 41.0958 -91.0800 269° West 407 468 40,000  Level Chicago Center
Wed 06:22:26 PM 41.0942 -91.2294 269° West 407 468 40,000  Level Chicago Center
Wed 06:23:29 PM 41.0925 -91.4111 269° West 411 473 40,000  Level Chicago Center
Wed 06:24:31 PM 41.0922 -91.5614 270° West 409 471 40,000  Level Chicago Center
Wed 06:26:35 PM 41.0883 -91.8611 269° West 414 476 40,000  Level Chicago Center
Wed 06:27:37 PM 41.0867 -92.0131 269° West 415 478 40,000  Level Chicago Center
Wed 06:28:39 PM 41.0842 -92.1947 269° West 415 478 40,000  Level Chicago Center
Wed 06:29:41 PM 41.0814 -92.3456 269° West 415 478 40,000  Level Chicago Center
Wed 06:30:43 PM 41.0792 -92.4986 269° West 419 482 40,000  Level Chicago Center
Wed 06:31:45 PM 41.0758 -92.6483 268° West 413 475 40,000  Level Chicago Center
Wed 06:32:47 PM 41.0725 -92.8317 269° West 419 482 40,000  Level Chicago Center
Wed 06:33:49 PM 41.0694 -92.9836 269° West 418 481 40,000  Level Chicago Center
Wed 06:34:52 PM 41.0656 -93.1364 268° West 420 483 40,000  Level Chicago Center
Wed 06:35:34 PM 41.0636 -93.2528 269° West 409 471 40,000  Level Minneapolis Center
Wed 06:36:36 PM 41.0603 -93.4042 268° West 413 475 40,000  Level Minneapolis Center
Wed 06:37:38 PM 41.0564 -93.5564 268° West 418 481 40,000  Level Minneapolis Center
Wed 06:38:40 PM 41.0533 -93.7083 269° West 419 482 40,000  Level Minneapolis Center
Wed 06:39:43 PM 41.0486 -93.8592 268° West 415 478 40,000  Level Minneapolis Center
Wed 06:40:45 PM 41.0422 -94.0403 267° West 416 479 40,000  Level Minneapolis Center
Wed 06:41:47 PM 41.0369 -94.1914 267° West 416 479 40,000  Level Minneapolis Center
Wed 06:42:49 PM 41.0322 -94.3428 268° West 416 479 40,000  Level Minneapolis Center
Wed 06:43:51 PM 41.0269 -94.4942 267° West 416 479 40,000  Level Minneapolis Center
Wed 06:44:53 PM 41.0197 -94.6656 267° West 416 479 40,000  Level Minneapolis Center
Wed 06:45:55 PM 41.0133 -94.8186 267° West 415 478 40,000  Level Minneapolis Center
Wed 06:46:57 PM 41.0069 -94.9714 267° West 416 479 40,000  Level Minneapolis Center
Wed 06:47:59 PM 41.0006 -95.1214 267° West 410 472 40,000  Level Minneapolis Center
Wed 06:49:01 PM 40.9933 -95.3028 267° West 409 471 40,000  Level Minneapolis Center
Wed 06:50:04 PM 40.9858 -95.4536 266° West 408 470 40,000  Level Minneapolis Center
Wed 06:51:06 PM 40.9786 -95.6031 266° West 406 467 40,000  Level Minneapolis Center
Wed 06:52:08 PM 40.9722 -95.7556 267° West 410 472 40,000  Level Minneapolis Center
Wed 06:53:10 PM 40.9653 -95.9069 267° West 410 472 40,000  Level Minneapolis Center
Wed 06:54:12 PM 40.9581 -96.0569 266° West 408 470 40,000  Level Minneapolis Center
Wed 06:55:14 PM 40.9500 -96.2064 266° West 405 466 40,000  Level Minneapolis Center
Wed 06:56:16 PM 40.9414 -96.3842 266° West 402 463 40,000  Level Minneapolis Center
Wed 06:57:18 PM 40.9336 -96.5314 266° West 400 460 40,000  Level Minneapolis Center
Wed 06:58:20 PM 40.9258 -96.6794 266° West 401 461 40,000  Level Minneapolis Center
Wed 06:59:22 PM 40.9150 -96.8275 265° West 404 465 40,000  Level Minneapolis Center
Wed 07:00:25 PM 40.9003 -96.9731 262° West 401 461 40,000  Level Minneapolis Center
Wed 07:01:27 PM 40.8864 -97.1194 263° West 401 461 40,000  Level Minneapolis Center
Wed 07:02:29 PM 40.8700 -97.2653 262° West 401 461 40,000  Level Minneapolis Center
Wed 07:03:31 PM 40.8553 -97.4297 263° West 401 461 40,000  Level Minneapolis Center
Wed 07:04:33 PM 40.8414 -97.5772 263° West 403 464 40,000  Level Minneapolis Center
Wed 07:05:35 PM 40.8264 -97.7242 262° West 403 464 40,000  Level Minneapolis Center
Wed 07:06:37 PM 40.8111 -97.8689 262° West 400 460 40,000  Level Minneapolis Center
Wed 07:07:39 PM 40.7933 -98.0436 262° West 399 459 40,000  Level Minneapolis Center
Wed 07:08:41 PM 40.7775 -98.1875 262° West 396 456 40,000  Level Minneapolis Center
Wed 07:09:43 PM 40.7619 -98.3300 262° West 392 451 40,000  Level Minneapolis Center
Wed 07:10:45 PM 40.7472 -98.4733 262° West 393 452 40,000  Level Minneapolis Center
Wed 07:11:48 PM 40.7317 -98.6169 262° West 393 452 40,000  Level Minneapolis Center
Wed 07:12:50 PM 40.7147 -98.7597 261° West 392 451 40,000  Level Minneapolis Center
Wed 07:13:52 PM 40.6989 -98.9036 262° West 393 452 40,000  Level Minneapolis Center
Wed 07:14:54 PM 40.6803 -99.0764 262° West 394 453 40,000  Level Minneapolis Center
Wed 07:16:03 PM 40.6642 -99.2197 262° West 396 456 40,000  Level Denver Center
Wed 07:17:05 PM 40.6483 -99.3628 262° West 395 455 40,000  Level Denver Center
Wed 07:18:07 PM 40.6267 -99.5328 261° West 393 452 40,000  Level Denver Center
Wed 07:19:09 PM 40.6111 -99.6733 262° West 388 447 40,000  Level Denver Center
Wed 07:20:11 PM 40.5933 -99.8142 261° West 390 449 40,000  Level Denver Center
Wed 07:21:13 PM 40.5769 -99.9539 261° West 393 452 40,000  Level Denver Center
Wed 07:22:15 PM 40.5564 -100.1131 260° West 395 455 40,000  Level Denver Center
Wed 07:23:17 PM 40.5403 -100.2497 261° West 392 451 40,000  Level Denver Center
Wed 07:24:19 PM 40.5203 -100.4078 261° West 391 450 40,000  Level Denver Center
Wed 07:25:21 PM 40.5022 -100.5431 260° West 390 449 40,000  Level Denver Center
Wed 07:26:23 PM 40.4850 -100.6761 260° West 384 442 40,000  Level Denver Center
Wed 07:27:25 PM 40.4647 -100.8342 260° West 390 449 40,000  Level Denver Center
Wed 07:28:40 PM 40.4411 -101.0139 260° West 390 449 40,000  Level Denver Center
Wed 07:29:42 PM 40.4225 -101.1469 260° West 387 445 40,000  Level Denver Center
Wed 07:30:44 PM 40.4050 -101.2794 260° West 385 443 40,000  Level Denver Center
Wed 07:31:46 PM 40.3833 -101.4353 260° West 388 447 40,000  Level Denver Center
Wed 07:32:48 PM 40.3656 -101.5694 260° West 390 449 40,000  Level Denver Center
Wed 07:33:50 PM 40.3422 -101.7244 259° West 388 447 40,000  Level Denver Center
Wed 07:34:52 PM 40.3028 -101.8450 247° West 378 435 40,000  Level Denver Center
Wed 07:35:54 PM 40.2550 -101.9894 247° West 383 441 40,000  Level Denver Center
Wed 07:36:56 PM 40.2156 -102.1117 247° West 383 441 40,000  Level Denver Center
Wed 07:37:58 PM 40.1678 -102.2522 246° West 379 436 40,000  Level Denver Center
Wed 07:39:00 PM 40.1289 -102.3736 247° West 378 435 40,000  Level Denver Center
Wed 07:40:02 PM 40.0839 -102.5167 248° West 382 440 40,000  Level Denver Center
Wed 07:41:04 PM 40.0458 -102.6381 248° West 378 435 40,000  Level Denver Center
Wed 07:42:06 PM 40.0169 -102.7725 254° West 375 432 40,000  Level Denver Center
Wed 07:43:08 PM 40.0025 -102.9086 262° West 379 436 40,000  Level Denver Center
Wed 07:44:11 PM 39.9856 -103.0436 261° West 379 436 40,000  Level Denver Center
Wed 07:45:13 PM 39.9644 -103.2058 260° West 379 436 40,000  Level Denver Center
Wed 07:46:15 PM 39.9478 -103.3417 261° West 380 437 40,000  Level Denver Center
Wed 07:47:17 PM 39.9297 -103.4792 260° West 384 442 40,000  Level Denver Center
Wed 07:48:19 PM 39.9131 -103.6164 261° West 385 443 40,000  Level Denver Center
Wed 07:49:21 PM 39.8958 -103.7547 261° West 389 448 40,000  Level Denver Center
Wed 07:50:23 PM 39.8781 -103.8894 260° West 379 436 40,000  Level Denver Center
Wed 07:51:25 PM 39.8564 -104.0497 260° West 376 433 40,000 -194 Level Denver Center
Wed 07:52:27 PM 39.8381 -104.1842 260° West 378 435 39,600 -677 Descending Denver Center
Wed 07:53:29 PM 39.8197 -104.3208 260° West 386 444 38,600 -1,016 Descending Denver Center
Wed 07:54:31 PM 39.7983 -104.4683 259° West 389 448 37,500 -1,016 Descending Denver Center
Wed 07:55:33 PM 39.7789 -104.6050 260° West 384 442 36,500 -968 Descending Denver Center
Wed 07:56:35 PM 39.7589 -104.7472 260° West 394 453 35,500 -1,016 Descending Denver Center
Wed 07:57:37 PM 39.7389 -104.8978 260° West 391 450 34,400 -871 Descending Denver Center
Wed 07:58:39 PM 39.7389 -105.0369 270° West 388 447 33,700 -1,210 Descending Denver Center
Wed 07:59:41 PM 39.7297 -105.1667 265° West 374 430 31,900 -1,839 Descending Denver Center
Wed 08:00:43 PM 39.7072 -105.3031 258° West 389 448 29,900 -2,129 Descending Denver Center
Wed 08:01:45 PM 39.6811 -105.4664 258° West 384 442 27,500 -2,129 Descending Denver Center
Wed 08:02:47 PM 39.6578 -105.6047 258° West 386 444 25,500 -1,694 Descending Denver Center
Wed 08:03:49 PM 39.6358 -105.7436 258° West 386 444 24,000 -726 Descending Denver Center
Wed 08:04:51 PM 39.6144 -105.8758 258° West 378 435 24,000  Level Denver Center
Wed 08:05:53 PM 39.5908 -106.0161 258° West 396 456 24,000  Level Denver Center
Wed 08:06:55 PM 39.5631 -106.1769 257° West 390 449 24,000 -48 Level Denver Center
Wed 08:07:58 PM 39.5411 -106.3103 258° West 381 438 23,900 -528 Descending Denver Center
Wed 08:09:00 PM 39.5175 -106.4450 257° West 383 441 22,900 -1,016 Descending Denver Center
Wed 08:10:02 PM 39.4958 -106.5653 257° West 354 407 21,800 -1,258 Descending Denver Center
Wed 08:11:04 PM 39.4886 -106.6772 265° West 286 329 20,300 -1,210 Descending Denver Center
Wed 08:12:06 PM 39.5008 -106.7583 281° West 239 275 19,300 -968 Descending Denver Center
Wed 08:13:08 PM 39.4900 -106.8361 260° West 197 227 18,300 -871 Descending Denver Center
Wed 08:14:10 PM 39.4706 -106.8897 245° Southwest 176 203 17,500 -968 Descending Denver Center
Wed 08:15:12 PM 39.4472 -106.9511 244° Southwest 170 196 16,300 -1,258 Descending Denver Center
Wed 08:16:14 PM 39.4008 -106.9531 182° South 196 226 14,900 -1,935 Descending Denver Center
Wed 08:17:16 PM 39.3464 -106.9281 160° South 178 205 12,300 -2,177 Descending Denver Center
Wed 08:18:18 PM 39.3092 -106.9006 150° Southeast 165 190 10,400 -1,790 Descending Denver Center
Wed 08:19:20 PM 39.2736 -106.8881 165° South 154 177 8,600 -1,742 Descending Denver Center

Login

Don't have an account? Register now (free) for customized features, flight alerts, and more!